sensor_id;sensor_type;location;lat;lon;timestamp;temperature;humidity
68480;DHT22;55469;48.934;12.050;2023-12-20T00:01:47;1.60;99.90
68480;DHT22;55469;48.934;12.050;2023-12-20T00:04:12;1.60;99.90
68480;DHT22;55469;48.934;12.050;2023-12-20T00:06:41;1.60;99.90
68480;DHT22;55469;48.934;12.050;2023-12-20T00:09:06;1.60;99.90
68480;DHT22;55469;48.934;12.050;2023-12-20T00:11:32;1.50;99.90
68480;DHT22;55469;48.934;12.050;2023-12-20T00:13:58;1.60;99.90
68480;DHT22;55469;48.934;12.050;2023-12-20T00:16:23;1.60;99.90
68480;DHT22;55469;48.934;12.050;2023-12-20T00:18:49;1.60;99.90
68480;DHT22;55469;48.934;12.050;2023-12-20T00:21:14;1.60;99.90
68480;DHT22;55469;48.934;12.050;2023-12-20T00:23:40;1.60;99.90
68480;DHT22;55469;48.934;12.050;2023-12-20T00:26:06;1.60;99.90
68480;DHT22;55469;48.934;12.050;2023-12-20T00:28:31;1.60;99.90
68480;DHT22;55469;48.934;12.050;2023-12-20T00:30:57;1.60;99.90
68480;DHT22;55469;48.934;12.050;2023-12-20T00:33:23;1.60;99.90
68480;DHT22;55469;48.934;12.050;2023-12-20T00:35:49;1.60;99.90
68480;DHT22;55469;48.934;12.050;2023-12-20T00:38:15;1.60;99.90
68480;DHT22;55469;48.934;12.050;2023-12-20T00:40:40;1.60;99.90
68480;DHT22;55469;48.934;12.050;2023-12-20T00:43:06;1.60;99.90
68480;DHT22;55469;48.934;12.050;2023-12-20T00:45:31;1.60;99.90
68480;DHT22;55469;48.934;12.050;2023-12-20T00:47:57;1.60;99.90
68480;DHT22;55469;48.934;12.050;2023-12-20T00:50:24;1.60;99.90
68480;DHT22;55469;48.934;12.050;2023-12-20T00:52:50;1.60;99.90
68480;DHT22;55469;48.934;12.050;2023-12-20T00:55:15;1.60;99.90
68480;DHT22;55469;48.934;12.050;2023-12-20T00:57:41;1.60;99.90
68480;DHT22;55469;48.934;12.050;2023-12-20T01:00:06;1.60;99.90
68480;DHT22;55469;48.934;12.050;2023-12-20T01:02:35;1.60;99.90
68480;DHT22;55469;48.934;12.050;2023-12-20T01:05:00;1.60;99.90
68480;DHT22;55469;48.934;12.050;2023-12-20T01:07:26;1.60;99.90
68480;DHT22;55469;48.934;12.050;2023-12-20T01:09:51;1.60;99.90
68480;DHT22;55469;48.934;12.050;2023-12-20T01:12:17;1.60;99.90
68480;DHT22;55469;48.934;12.050;2023-12-20T01:14:43;1.60;99.90
68480;DHT22;55469;48.934;12.050;2023-12-20T01:17:08;1.60;99.90
68480;DHT22;55469;48.934;12.050;2023-12-20T01:19:34;1.60;99.90
68480;DHT22;55469;48.934;12.050;2023-12-20T01:22:00;1.60;99.90
68480;DHT22;55469;48.934;12.050;2023-12-20T01:24:26;1.70;99.90
68480;DHT22;55469;48.934;12.050;2023-12-20T01:26:51;1.70;99.90
68480;DHT22;55469;48.934;12.050;2023-12-20T01:29:17;1.70;99.90
68480;DHT22;55469;48.934;12.050;2023-12-20T01:31:42;1.70;99.90
68480;DHT22;55469;48.934;12.050;2023-12-20T01:34:08;1.70;99.90
68480;DHT22;55469;48.934;12.050;2023-12-20T01:36:34;1.70;99.90
68480;DHT22;55469;48.934;12.050;2023-12-20T01:38:59;1.70;99.90
68480;DHT22;55469;48.934;12.050;2023-12-20T01:41:25;1.70;99.90
68480;DHT22;55469;48.934;12.050;2023-12-20T01:43:50;1.70;99.90
68480;DHT22;55469;48.934;12.050;2023-12-20T01:46:18;1.70;99.90
68480;DHT22;55469;48.934;12.050;2023-12-20T01:48:45;1.70;99.90
68480;DHT22;55469;48.934;12.050;2023-12-20T01:51:11;1.70;99.90
68480;DHT22;55469;48.934;12.050;2023-12-20T01:53:37;1.70;99.90
68480;DHT22;55469;48.934;12.050;2023-12-20T01:56:03;1.70;99.90
68480;DHT22;55469;48.934;12.050;2023-12-20T01:58:29;1.70;99.90
68480;DHT22;55469;48.934;12.050;2023-12-20T02:00:55;1.70;99.90
68480;DHT22;55469;48.934;12.050;2023-12-20T02:03:21;1.70;99.90
68480;DHT22;55469;48.934;12.050;2023-12-20T02:05:46;1.70;99.90
68480;DHT22;55469;48.934;12.050;2023-12-20T02:08:13;1.70;99.90
68480;DHT22;55469;48.934;12.050;2023-12-20T02:10:38;1.70;99.90
68480;DHT22;55469;48.934;12.050;2023-12-20T02:13:06;1.70;99.90
68480;DHT22;55469;48.934;12.050;2023-12-20T02:15:31;1.70;99.90
68480;DHT22;55469;48.934;12.050;2023-12-20T02:17:57;1.70;99.90
68480;DHT22;55469;48.934;12.050;2023-12-20T02:20:22;1.70;99.90
68480;DHT22;55469;48.934;12.050;2023-12-20T02:22:48;1.70;99.90
68480;DHT22;55469;48.934;12.050;2023-12-20T02:25:14;1.80;99.90
68480;DHT22;55469;48.934;12.050;2023-12-20T02:27:39;1.80;99.90
68480;DHT22;55469;48.934;12.050;2023-12-20T02:30:05;1.80;99.90
68480;DHT22;55469;48.934;12.050;2023-12-20T02:32:31;1.80;99.90
68480;DHT22;55469;48.934;12.050;2023-12-20T02:34:57;1.80;99.90
68480;DHT22;55469;48.934;12.050;2023-12-20T02:37:23;1.80;99.90
68480;DHT22;55469;48.934;12.050;2023-12-20T02:39:49;1.80;99.90
68480;DHT22;55469;48.934;12.050;2023-12-20T02:42:14;1.80;99.90
68480;DHT22;55469;48.934;12.050;2023-12-20T02:44:40;1.80;99.90
68480;DHT22;55469;48.934;12.050;2023-12-20T02:47:05;1.80;99.90
68480;DHT22;55469;48.934;12.050;2023-12-20T02:49:31;1.80;99.90
68480;DHT22;55469;48.934;12.050;2023-12-20T02:51:57;1.80;99.90
68480;DHT22;55469;48.934;12.050;2023-12-20T02:54:22;1.80;99.90
68480;DHT22;55469;48.934;12.050;2023-12-20T02:56:48;1.80;99.90
68480;DHT22;55469;48.934;12.050;2023-12-20T02:59:14;1.80;99.90
68480;DHT22;55469;48.934;12.050;2023-12-20T03:01:43;1.80;99.90
68480;DHT22;55469;48.934;12.050;2023-12-20T03:04:10;1.80;99.90
68480;DHT22;55469;48.934;12.050;2023-12-20T03:06:36;1.80;99.90
68480;DHT22;55469;48.934;12.050;2023-12-20T03:09:02;1.80;99.90
68480;DHT22;55469;48.934;12.050;2023-12-20T03:11:27;1.90;99.90
68480;DHT22;55469;48.934;12.050;2023-12-20T03:13:54;1.90;99.90
68480;DHT22;55469;48.934;12.050;2023-12-20T03:16:20;1.90;99.90
68480;DHT22;55469;48.934;12.050;2023-12-20T03:18:45;1.90;99.90
68480;DHT22;55469;48.934;12.050;2023-12-20T03:21:11;1.90;99.90
68480;DHT22;55469;48.934;12.050;2023-12-20T03:23:36;1.90;99.90
68480;DHT22;55469;48.934;12.050;2023-12-20T03:26:02;1.80;99.90
68480;DHT22;55469;48.934;12.050;2023-12-20T03:28:29;1.80;99.90
68480;DHT22;55469;48.934;12.050;2023-12-20T03:30:54;1.90;99.90
68480;DHT22;55469;48.934;12.050;2023-12-20T03:33:20;1.90;99.90
68480;DHT22;55469;48.934;12.050;2023-12-20T03:35:46;1.90;99.90
68480;DHT22;55469;48.934;12.050;2023-12-20T03:38:11;1.90;99.90
68480;DHT22;55469;48.934;12.050;2023-12-20T03:40:37;1.90;99.90
68480;DHT22;55469;48.934;12.050;2023-12-20T03:43:03;1.90;99.90
68480;DHT22;55469;48.934;12.050;2023-12-20T03:45:29;1.90;99.90
68480;DHT22;55469;48.934;12.050;2023-12-20T03:47:54;1.90;99.90
68480;DHT22;55469;48.934;12.050;2023-12-20T03:50:27;1.90;99.90
68480;DHT22;55469;48.934;12.050;2023-12-20T03:52:53;1.90;99.90
68480;DHT22;55469;48.934;12.050;2023-12-20T03:55:18;1.90;99.90
68480;DHT22;55469;48.934;12.050;2023-12-20T03:57:44;1.90;99.90
68480;DHT22;55469;48.934;12.050;2023-12-20T04:00:10;1.90;99.90
68480;DHT22;55469;48.934;12.050;2023-12-20T04:02:36;1.90;99.90
68480;DHT22;55469;48.934;12.050;2023-12-20T04:05:05;1.90;99.90
68480;DHT22;55469;48.934;12.050;2023-12-20T04:07:31;1.90;99.90
68480;DHT22;55469;48.934;12.050;2023-12-20T04:09:57;1.90;99.90
68480;DHT22;55469;48.934;12.050;2023-12-20T04:12:23;1.90;99.90
68480;DHT22;55469;48.934;12.050;2023-12-20T04:14:48;2.00;99.90
68480;DHT22;55469;48.934;12.050;2023-12-20T04:17:17;1.90;99.90
68480;DHT22;55469;48.934;12.050;2023-12-20T04:19:43;2.00;99.90
68480;DHT22;55469;48.934;12.050;2023-12-20T04:22:08;2.00;99.90
68480;DHT22;55469;48.934;12.050;2023-12-20T04:24:34;2.00;99.90
68480;DHT22;55469;48.934;12.050;2023-12-20T04:27:00;2.00;99.90
68480;DHT22;55469;48.934;12.050;2023-12-20T04:29:26;2.00;99.90
68480;DHT22;55469;48.934;12.050;2023-12-20T04:31:52;2.00;99.90
68480;DHT22;55469;48.934;12.050;2023-12-20T04:34:17;2.00;99.90
68480;DHT22;55469;48.934;12.050;2023-12-20T04:36:43;2.00;99.90
68480;DHT22;55469;48.934;12.050;2023-12-20T04:39:09;2.00;99.90
68480;DHT22;55469;48.934;12.050;2023-12-20T04:41:35;2.00;99.90
68480;DHT22;55469;48.934;12.050;2023-12-20T04:44:01;2.00;99.90
68480;DHT22;55469;48.934;12.050;2023-12-20T04:46:27;2.00;99.90
68480;DHT22;55469;48.934;12.050;2023-12-20T04:48:52;2.00;99.90
68480;DHT22;55469;48.934;12.050;2023-12-20T04:51:18;2.00;99.90
68480;DHT22;55469;48.934;12.050;2023-12-20T04:53:44;2.00;99.90
68480;DHT22;55469;48.934;12.050;2023-12-20T04:56:09;2.00;99.90
68480;DHT22;55469;48.934;12.050;2023-12-20T04:58:35;2.00;99.90
68480;DHT22;55469;48.934;12.050;2023-12-20T05:01:01;2.00;99.90
68480;DHT22;55469;48.934;12.050;2023-12-20T05:03:27;2.10;99.90
68480;DHT22;55469;48.934;12.050;2023-12-20T05:05:52;2.10;99.90
68480;DHT22;55469;48.934;12.050;2023-12-20T05:08:18;2.10;99.90
68480;DHT22;55469;48.934;12.050;2023-12-20T05:10:44;2.10;99.90
68480;DHT22;55469;48.934;12.050;2023-12-20T05:13:09;2.10;99.90
68480;DHT22;55469;48.934;12.050;2023-12-20T05:15:35;2.10;99.90
68480;DHT22;55469;48.934;12.050;2023-12-20T05:18:00;2.10;99.90
68480;DHT22;55469;48.934;12.050;2023-12-20T05:20:26;2.10;99.90
68480;DHT22;55469;48.934;12.050;2023-12-20T05:22:52;2.10;99.90
68480;DHT22;55469;48.934;12.050;2023-12-20T05:25:17;2.10;99.90
68480;DHT22;55469;48.934;12.050;2023-12-20T05:27:43;2.10;99.90
68480;DHT22;55469;48.934;12.050;2023-12-20T05:30:09;2.10;99.90
68480;DHT22;55469;48.934;12.050;2023-12-20T05:32:35;2.10;99.90
68480;DHT22;55469;48.934;12.050;2023-12-20T05:35:01;2.10;99.90
68480;DHT22;55469;48.934;12.050;2023-12-20T05:37:26;2.20;99.90
68480;DHT22;55469;48.934;12.050;2023-12-20T05:39:52;2.20;99.90
68480;DHT22;55469;48.934;12.050;2023-12-20T05:42:18;2.10;99.90
68480;DHT22;55469;48.934;12.050;2023-12-20T05:44:43;2.10;99.90
68480;DHT22;55469;48.934;12.050;2023-12-20T05:47:09;2.10;99.90
68480;DHT22;55469;48.934;12.050;2023-12-20T05:49:34;2.20;99.90
68480;DHT22;55469;48.934;12.050;2023-12-20T05:52:00;2.20;99.90
68480;DHT22;55469;48.934;12.050;2023-12-20T05:54:26;2.20;99.90
68480;DHT22;55469;48.934;12.050;2023-12-20T05:56:51;2.20;99.90
68480;DHT22;55469;48.934;12.050;2023-12-20T05:59:17;2.20;99.90
68480;DHT22;55469;48.934;12.050;2023-12-20T06:01:42;2.20;99.90
68480;DHT22;55469;48.934;12.050;2023-12-20T06:04:08;2.20;99.90
68480;DHT22;55469;48.934;12.050;2023-12-20T06:06:34;2.20;99.90
68480;DHT22;55469;48.934;12.050;2023-12-20T06:08:59;2.20;99.90
68480;DHT22;55469;48.934;12.050;2023-12-20T06:11:25;2.20;99.90
68480;DHT22;55469;48.934;12.050;2023-12-20T06:13:51;2.20;99.90
68480;DHT22;55469;48.934;12.050;2023-12-20T06:16:18;2.20;99.90
68480;DHT22;55469;48.934;12.050;2023-12-20T06:18:44;2.20;99.90
68480;DHT22;55469;48.934;12.050;2023-12-20T06:21:10;2.20;99.90
68480;DHT22;55469;48.934;12.050;2023-12-20T06:23:38;2.20;99.90
68480;DHT22;55469;48.934;12.050;2023-12-20T06:26:04;2.20;99.90
68480;DHT22;55469;48.934;12.050;2023-12-20T06:28:29;2.30;99.90
68480;DHT22;55469;48.934;12.050;2023-12-20T06:30:55;2.30;99.90
68480;DHT22;55469;48.934;12.050;2023-12-20T06:33:22;2.30;99.90
68480;DHT22;55469;48.934;12.050;2023-12-20T06:35:48;2.30;99.90
68480;DHT22;55469;48.934;12.050;2023-12-20T06:38:14;2.30;99.90
68480;DHT22;55469;48.934;12.050;2023-12-20T06:40:39;2.30;99.90
68480;DHT22;55469;48.934;12.050;2023-12-20T06:43:05;2.30;99.90
68480;DHT22;55469;48.934;12.050;2023-12-20T06:45:32;2.30;99.90
68480;DHT22;55469;48.934;12.050;2023-12-20T06:47:58;2.30;99.90
68480;DHT22;55469;48.934;12.050;2023-12-20T06:50:23;2.30;99.90
68480;DHT22;55469;48.934;12.050;2023-12-20T06:52:49;2.30;99.90
68480;DHT22;55469;48.934;12.050;2023-12-20T06:55:15;2.30;99.90
68480;DHT22;55469;48.934;12.050;2023-12-20T06:57:40;2.30;99.90
68480;DHT22;55469;48.934;12.050;2023-12-20T07:00:06;2.30;99.90
68480;DHT22;55469;48.934;12.050;2023-12-20T07:02:33;2.30;99.90
68480;DHT22;55469;48.934;12.050;2023-12-20T07:04:59;2.30;99.90
68480;DHT22;55469;48.934;12.050;2023-12-20T07:07:25;2.40;99.90
68480;DHT22;55469;48.934;12.050;2023-12-20T07:09:51;2.40;99.90
68480;DHT22;55469;48.934;12.050;2023-12-20T07:12:17;2.40;99.90
68480;DHT22;55469;48.934;12.050;2023-12-20T07:14:45;2.40;99.90
68480;DHT22;55469;48.934;12.050;2023-12-20T07:17:11;2.40;99.90
68480;DHT22;55469;48.934;12.050;2023-12-20T07:19:42;2.40;99.90
68480;DHT22;55469;48.934;12.050;2023-12-20T07:22:07;2.40;99.90
68480;DHT22;55469;48.934;12.050;2023-12-20T07:24:33;2.40;99.90
68480;DHT22;55469;48.934;12.050;2023-12-20T07:27:02;2.40;99.90
68480;DHT22;55469;48.934;12.050;2023-12-20T07:29:28;2.40;99.90
68480;DHT22;55469;48.934;12.050;2023-12-20T07:31:54;2.40;99.90
68480;DHT22;55469;48.934;12.050;2023-12-20T07:34:20;2.40;99.90
68480;DHT22;55469;48.934;12.050;2023-12-20T07:36:46;2.40;99.90
68480;DHT22;55469;48.934;12.050;2023-12-20T07:39:12;2.40;99.90
68480;DHT22;55469;48.934;12.050;2023-12-20T07:41:39;2.40;99.90
68480;DHT22;55469;48.934;12.050;2023-12-20T07:44:05;2.40;99.90
68480;DHT22;55469;48.934;12.050;2023-12-20T07:46:31;2.40;99.90
68480;DHT22;55469;48.934;12.050;2023-12-20T07:48:57;2.40;99.90
68480;DHT22;55469;48.934;12.050;2023-12-20T07:51:23;2.50;99.90
68480;DHT22;55469;48.934;12.050;2023-12-20T07:53:48;2.40;99.90
68480;DHT22;55469;48.934;12.050;2023-12-20T07:56:17;2.50;99.90
68480;DHT22;55469;48.934;12.050;2023-12-20T07:58:44;2.40;99.90
68480;DHT22;55469;48.934;12.050;2023-12-20T08:01:13;2.50;99.90
68480;DHT22;55469;48.934;12.050;2023-12-20T08:03:39;2.50;99.90
68480;DHT22;55469;48.934;12.050;2023-12-20T08:06:05;2.50;99.90
68480;DHT22;55469;48.934;12.050;2023-12-20T08:08:31;2.50;99.90
68480;DHT22;55469;48.934;12.050;2023-12-20T08:10:56;2.50;99.90
68480;DHT22;55469;48.934;12.050;2023-12-20T08:13:24;2.50;99.90
68480;DHT22;55469;48.934;12.050;2023-12-20T08:15:51;2.50;99.90
68480;DHT22;55469;48.934;12.050;2023-12-20T08:18:17;2.50;99.90
68480;DHT22;55469;48.934;12.050;2023-12-20T08:20:43;2.50;99.90
68480;DHT22;55469;48.934;12.050;2023-12-20T08:23:09;2.50;99.90
68480;DHT22;55469;48.934;12.050;2023-12-20T08:25:34;2.50;99.90
68480;DHT22;55469;48.934;12.050;2023-12-20T08:28:01;2.50;99.90
68480;DHT22;55469;48.934;12.050;2023-12-20T08:30:28;2.60;99.90
68480;DHT22;55469;48.934;12.050;2023-12-20T08:32:54;2.50;99.90
68480;DHT22;55469;48.934;12.050;2023-12-20T08:35:20;2.60;99.90
68480;DHT22;55469;48.934;12.050;2023-12-20T08:37:46;2.60;99.90
68480;DHT22;55469;48.934;12.050;2023-12-20T08:40:11;2.60;99.90
68480;DHT22;55469;48.934;12.050;2023-12-20T08:42:37;2.60;99.90
68480;DHT22;55469;48.934;12.050;2023-12-20T08:45:03;2.60;99.90
68480;DHT22;55469;48.934;12.050;2023-12-20T08:47:29;2.60;99.90
68480;DHT22;55469;48.934;12.050;2023-12-20T08:49:55;2.60;99.90
68480;DHT22;55469;48.934;12.050;2023-12-20T08:52:24;2.60;99.90
68480;DHT22;55469;48.934;12.050;2023-12-20T08:54:50;2.60;99.90
68480;DHT22;55469;48.934;12.050;2023-12-20T08:57:19;2.70;99.90
68480;DHT22;55469;48.934;12.050;2023-12-20T08:59:46;2.60;99.90
68480;DHT22;55469;48.934;12.050;2023-12-20T09:02:12;2.70;99.90
68480;DHT22;55469;48.934;12.050;2023-12-20T09:04:39;2.70;99.90
68480;DHT22;55469;48.934;12.050;2023-12-20T09:07:04;2.60;99.90
68480;DHT22;55469;48.934;12.050;2023-12-20T09:09:30;2.70;99.90
68480;DHT22;55469;48.934;12.050;2023-12-20T09:11:57;2.70;99.90
68480;DHT22;55469;48.934;12.050;2023-12-20T09:14:23;2.70;99.90
68480;DHT22;55469;48.934;12.050;2023-12-20T09:16:49;2.70;99.90
68480;DHT22;55469;48.934;12.050;2023-12-20T09:19:17;2.70;99.90
68480;DHT22;55469;48.934;12.050;2023-12-20T09:21:43;2.70;99.90
68480;DHT22;55469;48.934;12.050;2023-12-20T09:24:08;2.70;99.90
68480;DHT22;55469;48.934;12.050;2023-12-20T09:26:34;2.70;99.90
68480;DHT22;55469;48.934;12.050;2023-12-20T09:29:00;2.70;99.90
68480;DHT22;55469;48.934;12.050;2023-12-20T09:31:26;2.70;99.90
68480;DHT22;55469;48.934;12.050;2023-12-20T09:33:52;2.70;99.90
68480;DHT22;55469;48.934;12.050;2023-12-20T09:36:17;2.70;99.90
68480;DHT22;55469;48.934;12.050;2023-12-20T09:38:43;2.70;99.90
68480;DHT22;55469;48.934;12.050;2023-12-20T09:41:09;2.70;99.90
68480;DHT22;55469;48.934;12.050;2023-12-20T09:43:35;2.70;99.90
68480;DHT22;55469;48.934;12.050;2023-12-20T09:46:02;2.70;99.90
68480;DHT22;55469;48.934;12.050;2023-12-20T09:48:31;2.80;99.90
68480;DHT22;55469;48.934;12.050;2023-12-20T09:50:56;2.80;99.90
68480;DHT22;55469;48.934;12.050;2023-12-20T09:53:23;2.80;99.90
68480;DHT22;55469;48.934;12.050;2023-12-20T09:55:55;2.80;99.90
68480;DHT22;55469;48.934;12.050;2023-12-20T09:58:24;2.80;99.90
68480;DHT22;55469;48.934;12.050;2023-12-20T10:00:49;2.80;99.90
68480;DHT22;55469;48.934;12.050;2023-12-20T10:03:16;2.80;99.90
68480;DHT22;55469;48.934;12.050;2023-12-20T10:05:41;2.80;99.90
68480;DHT22;55469;48.934;12.050;2023-12-20T10:08:08;2.80;99.90
68480;DHT22;55469;48.934;12.050;2023-12-20T10:10:34;2.80;99.90
68480;DHT22;55469;48.934;12.050;2023-12-20T10:13:09;2.80;99.90
68480;DHT22;55469;48.934;12.050;2023-12-20T10:15:36;2.80;99.90
68480;DHT22;55469;48.934;12.050;2023-12-20T10:18:03;2.80;99.90
68480;DHT22;55469;48.934;12.050;2023-12-20T10:20:29;2.80;99.90
68480;DHT22;55469;48.934;12.050;2023-12-20T10:22:55;2.80;99.90
68480;DHT22;55469;48.934;12.050;2023-12-20T10:25:22;2.90;99.90
68480;DHT22;55469;48.934;12.050;2023-12-20T10:27:47;2.90;99.90
68480;DHT22;55469;48.934;12.050;2023-12-20T10:30:14;2.90;99.90
68480;DHT22;55469;48.934;12.050;2023-12-20T10:32:40;2.90;99.90
68480;DHT22;55469;48.934;12.050;2023-12-20T10:35:08;2.90;99.90
68480;DHT22;55469;48.934;12.050;2023-12-20T10:37:35;2.90;99.90
68480;DHT22;55469;48.934;12.050;2023-12-20T10:40:03;2.90;99.90
68480;DHT22;55469;48.934;12.050;2023-12-20T10:42:29;2.90;99.90
68480;DHT22;55469;48.934;12.050;2023-12-20T10:44:55;2.90;99.90
68480;DHT22;55469;48.934;12.050;2023-12-20T10:47:20;2.90;99.90
68480;DHT22;55469;48.934;12.050;2023-12-20T10:49:46;2.90;99.90
68480;DHT22;55469;48.934;12.050;2023-12-20T10:52:12;3.00;99.90
68480;DHT22;55469;48.934;12.050;2023-12-20T10:54:41;3.00;99.90
68480;DHT22;55469;48.934;12.050;2023-12-20T10:57:07;3.00;99.90
68480;DHT22;55469;48.934;12.050;2023-12-20T10:59:33;3.00;99.90
68480;DHT22;55469;48.934;12.050;2023-12-20T11:01:59;3.00;99.90
68480;DHT22;55469;48.934;12.050;2023-12-20T11:04:26;3.00;99.90
68480;DHT22;55469;48.934;12.050;2023-12-20T11:07:03;3.00;99.90
68480;DHT22;55469;48.934;12.050;2023-12-20T11:09:38;3.00;99.90
68480;DHT22;55469;48.934;12.050;2023-12-20T11:19:35;3.10;99.90
68480;DHT22;55469;48.934;12.050;2023-12-20T11:22:03;3.10;99.90
68480;DHT22;55469;48.934;12.050;2023-12-20T11:24:30;3.10;99.90
68480;DHT22;55469;48.934;12.050;2023-12-20T11:26:56;3.10;99.90
68480;DHT22;55469;48.934;12.050;2023-12-20T11:32:03;3.20;99.90
68480;DHT22;55469;48.934;12.050;2023-12-20T11:34:31;3.20;99.90
68480;DHT22;55469;48.934;12.050;2023-12-20T11:36:58;3.20;99.90
68480;DHT22;55469;48.934;12.050;2023-12-20T11:39:25;3.20;99.90
68480;DHT22;55469;48.934;12.050;2023-12-20T11:41:53;3.20;99.90
68480;DHT22;55469;48.934;12.050;2023-12-20T11:44:20;3.20;99.90
68480;DHT22;55469;48.934;12.050;2023-12-20T11:46:46;3.30;99.90
68480;DHT22;55469;48.934;12.050;2023-12-20T11:49:11;3.30;99.90
68480;DHT22;55469;48.934;12.050;2023-12-20T11:51:40;3.20;99.90
68480;DHT22;55469;48.934;12.050;2023-12-20T11:54:06;3.30;99.90
68480;DHT22;55469;48.934;12.050;2023-12-20T11:56:32;3.30;99.90
68480;DHT22;55469;48.934;12.050;2023-12-20T11:58:58;3.30;99.90
68480;DHT22;55469;48.934;12.050;2023-12-20T12:01:24;3.30;99.90
68480;DHT22;55469;48.934;12.050;2023-12-20T12:04:01;3.30;99.90
68480;DHT22;55469;48.934;12.050;2023-12-20T12:06:27;3.30;99.90
68480;DHT22;55469;48.934;12.050;2023-12-20T12:08:54;3.30;99.90
68480;DHT22;55469;48.934;12.050;2023-12-20T12:11:21;3.30;99.90
68480;DHT22;55469;48.934;12.050;2023-12-20T12:13:47;3.30;99.90
68480;DHT22;55469;48.934;12.050;2023-12-20T12:16:12;3.30;99.90
68480;DHT22;55469;48.934;12.050;2023-12-20T12:18:42;3.30;99.90
68480;DHT22;55469;48.934;12.050;2023-12-20T12:21:07;3.30;99.90
68480;DHT22;55469;48.934;12.050;2023-12-20T12:23:33;3.30;99.90
68480;DHT22;55469;48.934;12.050;2023-12-20T12:25:58;3.30;99.90
68480;DHT22;55469;48.934;12.050;2023-12-20T12:28:27;3.40;99.90
68480;DHT22;55469;48.934;12.050;2023-12-20T12:30:58;3.40;99.90
68480;DHT22;55469;48.934;12.050;2023-12-20T12:33:26;3.40;99.90
68480;DHT22;55469;48.934;12.050;2023-12-20T12:35:52;3.30;99.90
68480;DHT22;55469;48.934;12.050;2023-12-20T12:38:21;3.30;99.90
68480;DHT22;55469;48.934;12.050;2023-12-20T12:40:47;3.30;99.90
68480;DHT22;55469;48.934;12.050;2023-12-20T12:43:12;3.40;99.90
68480;DHT22;55469;48.934;12.050;2023-12-20T12:45:38;3.30;99.90
68480;DHT22;55469;48.934;12.050;2023-12-20T12:48:04;3.30;99.90
68480;DHT22;55469;48.934;12.050;2023-12-20T12:50:30;3.30;99.90
68480;DHT22;55469;48.934;12.050;2023-12-20T12:52:56;3.40;99.90
68480;DHT22;55469;48.934;12.050;2023-12-20T12:55:22;3.40;99.90
68480;DHT22;55469;48.934;12.050;2023-12-20T12:57:47;3.40;99.90
68480;DHT22;55469;48.934;12.050;2023-12-20T13:00:13;3.40;99.90
68480;DHT22;55469;48.934;12.050;2023-12-20T13:02:39;3.40;99.90
68480;DHT22;55469;48.934;12.050;2023-12-20T13:05:07;3.40;99.90
68480;DHT22;55469;48.934;12.050;2023-12-20T13:07:33;3.40;99.90
68480;DHT22;55469;48.934;12.050;2023-12-20T13:09:59;3.40;99.90
68480;DHT22;55469;48.934;12.050;2023-12-20T13:12:25;3.40;99.90
68480;DHT22;55469;48.934;12.050;2023-12-20T13:14:51;3.40;99.90
68480;DHT22;55469;48.934;12.050;2023-12-20T13:17:17;3.40;99.90
68480;DHT22;55469;48.934;12.050;2023-12-20T13:19:42;3.40;99.90
68480;DHT22;55469;48.934;12.050;2023-12-20T13:22:08;3.40;99.90
68480;DHT22;55469;48.934;12.050;2023-12-20T13:24:34;3.40;99.90
68480;DHT22;55469;48.934;12.050;2023-12-20T13:27:00;3.40;99.90
68480;DHT22;55469;48.934;12.050;2023-12-20T13:29:25;3.40;99.90
68480;DHT22;55469;48.934;12.050;2023-12-20T13:31:54;3.40;99.90
68480;DHT22;55469;48.934;12.050;2023-12-20T13:34:19;3.50;99.90
68480;DHT22;55469;48.934;12.050;2023-12-20T13:36:45;3.40;99.90
68480;DHT22;55469;48.934;12.050;2023-12-20T13:39:13;3.40;99.90
68480;DHT22;55469;48.934;12.050;2023-12-20T13:41:39;3.40;99.90
68480;DHT22;55469;48.934;12.050;2023-12-20T13:44:04;3.50;99.90
68480;DHT22;55469;48.934;12.050;2023-12-20T13:46:30;3.50;99.90
68480;DHT22;55469;48.934;12.050;2023-12-20T13:48:56;3.50;99.90
68480;DHT22;55469;48.934;12.050;2023-12-20T13:51:22;3.50;99.90
68480;DHT22;55469;48.934;12.050;2023-12-20T13:53:48;3.50;99.90
68480;DHT22;55469;48.934;12.050;2023-12-20T13:56:14;3.50;99.90
68480;DHT22;55469;48.934;12.050;2023-12-20T13:58:40;3.50;99.90
68480;DHT22;55469;48.934;12.050;2023-12-20T14:01:07;3.50;99.90
68480;DHT22;55469;48.934;12.050;2023-12-20T14:03:34;3.50;99.90
68480;DHT22;55469;48.934;12.050;2023-12-20T14:05:59;3.50;99.90
68480;DHT22;55469;48.934;12.050;2023-12-20T14:08:26;3.50;99.90
68480;DHT22;55469;48.934;12.050;2023-12-20T14:10:52;3.50;99.90
68480;DHT22;55469;48.934;12.050;2023-12-20T14:13:18;3.50;99.90
68480;DHT22;55469;48.934;12.050;2023-12-20T14:15:44;3.50;99.90
68480;DHT22;55469;48.934;12.050;2023-12-20T14:18:10;3.50;99.90
68480;DHT22;55469;48.934;12.050;2023-12-20T14:20:37;3.50;99.90
68480;DHT22;55469;48.934;12.050;2023-12-20T14:23:05;3.50;99.90
68480;DHT22;55469;48.934;12.050;2023-12-20T14:25:30;3.50;99.90
68480;DHT22;55469;48.934;12.050;2023-12-20T14:27:59;3.60;99.90
68480;DHT22;55469;48.934;12.050;2023-12-20T14:30:24;3.60;99.90
68480;DHT22;55469;48.934;12.050;2023-12-20T14:32:50;3.60;99.90
68480;DHT22;55469;48.934;12.050;2023-12-20T14:35:16;3.50;99.90
68480;DHT22;55469;48.934;12.050;2023-12-20T14:37:41;3.60;99.90
68480;DHT22;55469;48.934;12.050;2023-12-20T14:40:07;3.60;99.90
68480;DHT22;55469;48.934;12.050;2023-12-20T14:42:36;3.60;99.90
68480;DHT22;55469;48.934;12.050;2023-12-20T14:45:02;3.60;99.90
68480;DHT22;55469;48.934;12.050;2023-12-20T14:47:28;3.60;99.90
68480;DHT22;55469;48.934;12.050;2023-12-20T14:49:54;3.50;99.90
68480;DHT22;55469;48.934;12.050;2023-12-20T14:52:19;3.60;99.90
68480;DHT22;55469;48.934;12.050;2023-12-20T14:54:45;3.60;99.90
68480;DHT22;55469;48.934;12.050;2023-12-20T14:57:11;3.60;99.90
68480;DHT22;55469;48.934;12.050;2023-12-20T14:59:36;3.60;99.90
68480;DHT22;55469;48.934;12.050;2023-12-20T15:02:02;3.60;99.90
68480;DHT22;55469;48.934;12.050;2023-12-20T15:04:30;3.60;99.90
68480;DHT22;55469;48.934;12.050;2023-12-20T15:06:58;3.60;99.90
68480;DHT22;55469;48.934;12.050;2023-12-20T15:09:25;3.60;99.90
68480;DHT22;55469;48.934;12.050;2023-12-20T15:11:52;3.60;99.90
68480;DHT22;55469;48.934;12.050;2023-12-20T15:14:17;3.60;99.90
68480;DHT22;55469;48.934;12.050;2023-12-20T15:16:45;3.60;99.90
68480;DHT22;55469;48.934;12.050;2023-12-20T15:19:12;3.60;99.90
68480;DHT22;55469;48.934;12.050;2023-12-20T15:21:38;3.60;99.90
68480;DHT22;55469;48.934;12.050;2023-12-20T15:24:10;3.60;99.90
68480;DHT22;55469;48.934;12.050;2023-12-20T15:26:40;3.60;99.90
68480;DHT22;55469;48.934;12.050;2023-12-20T15:29:07;3.60;99.90
68480;DHT22;55469;48.934;12.050;2023-12-20T15:31:34;3.60;99.90
68480;DHT22;55469;48.934;12.050;2023-12-20T15:34:01;3.60;99.90